sensor_id;sensor_type;location;lat;lon;timestamp;P1;durP1;ratioP1;P2;durP2;ratioP2
2390;SDS011;22957;50.824;4.360;2023-05-07T00:02:02;9.70;;;2.87;;
2390;SDS011;22957;50.824;4.360;2023-05-07T00:04:28;8.77;;;2.80;;
2390;SDS011;22957;50.824;4.360;2023-05-07T00:07:00;9.63;;;2.53;;
2390;SDS011;22957;50.824;4.360;2023-05-07T00:09:26;7.73;;;2.00;;
2390;SDS011;22957;50.824;4.360;2023-05-07T00:11:52;8.07;;;2.73;;
2390;SDS011;22957;50.824;4.360;2023-05-07T00:14:18;7.30;;;2.40;;
2390;SDS011;22957;50.824;4.360;2023-05-07T00:16:43;9.47;;;2.80;;
2390;SDS011;22957;50.824;4.360;2023-05-07T00:19:09;10.57;;;2.43;;
2390;SDS011;22957;50.824;4.360;2023-05-07T00:21:35;8.50;;;3.20;;
2390;SDS011;22957;50.824;4.360;2023-05-07T00:24:00;7.13;;;2.90;;
2390;SDS011;22957;50.824;4.360;2023-05-07T00:26:26;4.97;;;2.40;;
2390;SDS011;22957;50.824;4.360;2023-05-07T00:28:52;8.13;;;2.10;;
2390;SDS011;22957;50.824;4.360;2023-05-07T00:31:17;6.70;;;2.40;;
2390;SDS011;22957;50.824;4.360;2023-05-07T00:33:43;7.50;;;2.40;;
2390;SDS011;22957;50.824;4.360;2023-05-07T00:36:08;5.30;;;2.13;;
2390;SDS011;22957;50.824;4.360;2023-05-07T00:38:34;9.43;;;1.80;;
2390;SDS011;22957;50.824;4.360;2023-05-07T00:41:00;7.63;;;2.33;;
2390;SDS011;22957;50.824;4.360;2023-05-07T00:43:27;9.27;;;2.80;;
2390;SDS011;22957;50.824;4.360;2023-05-07T00:45:53;5.93;;;2.13;;
2390;SDS011;22957;50.824;4.360;2023-05-07T00:48:19;6.90;;;2.20;;
2390;SDS011;22957;50.824;4.360;2023-05-07T00:50:45;7.00;;;2.07;;
2390;SDS011;22957;50.824;4.360;2023-05-07T00:53:12;10.60;;;2.87;;
2390;SDS011;22957;50.824;4.360;2023-05-07T00:55:38;4.90;;;2.73;;
2390;SDS011;22957;50.824;4.360;2023-05-07T00:58:03;10.77;;;2.47;;
2390;SDS011;22957;50.824;4.360;2023-05-07T01:00:30;7.13;;;2.50;;
2390;SDS011;22957;50.824;4.360;2023-05-07T01:02:56;8.63;;;2.27;;
2390;SDS011;22957;50.824;4.360;2023-05-07T01:05:22;7.50;;;2.53;;
2390;SDS011;22957;50.824;4.360;2023-05-07T01:07:49;6.70;;;2.30;;
2390;SDS011;22957;50.824;4.360;2023-05-07T01:10:16;5.27;;;1.80;;
2390;SDS011;22957;50.824;4.360;2023-05-07T01:12:42;6.33;;;2.17;;
2390;SDS011;22957;50.824;4.360;2023-05-07T01:15:09;5.17;;;2.40;;
2390;SDS011;22957;50.824;4.360;2023-05-07T01:17:35;4.73;;;2.37;;
2390;SDS011;22957;50.824;4.360;2023-05-07T01:20:04;6.37;;;2.27;;
2390;SDS011;22957;50.824;4.360;2023-05-07T01:22:34;8.07;;;2.20;;
2390;SDS011;22957;50.824;4.360;2023-05-07T01:25:02;7.87;;;2.80;;
2390;SDS011;22957;50.824;4.360;2023-05-07T01:27:28;7.93;;;2.80;;
2390;SDS011;22957;50.824;4.360;2023-05-07T01:29:54;9.23;;;3.43;;
2390;SDS011;22957;50.824;4.360;2023-05-07T01:32:21;5.60;;;2.50;;
2390;SDS011;22957;50.824;4.360;2023-05-07T01:35:05;9.60;;;2.87;;
2390;SDS011;22957;50.824;4.360;2023-05-07T01:37:34;9.10;;;2.50;;
2390;SDS011;22957;50.824;4.360;2023-05-07T01:40:01;10.80;;;2.73;;
2390;SDS011;22957;50.824;4.360;2023-05-07T01:42:28;7.27;;;2.40;;
2390;SDS011;22957;50.824;4.360;2023-05-07T01:44:54;7.83;;;2.37;;
2390;SDS011;22957;50.824;4.360;2023-05-07T01:47:20;7.60;;;2.70;;
2390;SDS011;22957;50.824;4.360;2023-05-07T01:49:46;12.30;;;2.97;;
2390;SDS011;22957;50.824;4.360;2023-05-07T01:52:12;11.57;;;2.20;;
2390;SDS011;22957;50.824;4.360;2023-05-07T01:54:38;11.80;;;3.13;;
2390;SDS011;22957;50.824;4.360;2023-05-07T01:57:03;7.83;;;2.47;;
2390;SDS011;22957;50.824;4.360;2023-05-07T01:59:29;10.30;;;3.50;;
2390;SDS011;22957;50.824;4.360;2023-05-07T02:01:55;7.87;;;2.47;;
2390;SDS011;22957;50.824;4.360;2023-05-07T02:04:20;10.53;;;2.93;;
2390;SDS011;22957;50.824;4.360;2023-05-07T02:06:46;15.83;;;3.80;;
2390;SDS011;22957;50.824;4.360;2023-05-07T02:09:11;9.23;;;3.50;;
2390;SDS011;22957;50.824;4.360;2023-05-07T02:11:40;9.27;;;2.90;;
2390;SDS011;22957;50.824;4.360;2023-05-07T02:14:05;7.73;;;2.70;;
2390;SDS011;22957;50.824;4.360;2023-05-07T02:16:31;7.57;;;2.53;;
2390;SDS011;22957;50.824;4.360;2023-05-07T02:18:56;8.93;;;2.60;;
2390;SDS011;22957;50.824;4.360;2023-05-07T02:21:23;9.50;;;2.70;;
2390;SDS011;22957;50.824;4.360;2023-05-07T02:23:50;8.90;;;2.33;;
2390;SDS011;22957;50.824;4.360;2023-05-07T02:26:15;10.47;;;2.30;;
2390;SDS011;22957;50.824;4.360;2023-05-07T02:28:41;8.20;;;2.30;;
2390;SDS011;22957;50.824;4.360;2023-05-07T02:31:07;6.93;;;1.97;;
2390;SDS011;22957;50.824;4.360;2023-05-07T02:33:32;11.77;;;2.70;;
2390;SDS011;22957;50.824;4.360;2023-05-07T02:36:06;11.20;;;2.60;;
2390;SDS011;22957;50.824;4.360;2023-05-07T02:38:33;16.17;;;2.50;;
2390;SDS011;22957;50.824;4.360;2023-05-07T02:40:59;7.20;;;1.80;;
2390;SDS011;22957;50.824;4.360;2023-05-07T02:43:25;9.73;;;2.50;;
2390;SDS011;22957;50.824;4.360;2023-05-07T02:45:59;9.33;;;2.50;;
2390;SDS011;22957;50.824;4.360;2023-05-07T02:48:26;4.20;;;1.83;;
2390;SDS011;22957;50.824;4.360;2023-05-07T02:50:52;8.30;;;2.53;;
2390;SDS011;22957;50.824;4.360;2023-05-07T02:53:17;7.17;;;2.00;;
2390;SDS011;22957;50.824;4.360;2023-05-07T02:55:43;11.90;;;2.43;;
2390;SDS011;22957;50.824;4.360;2023-05-07T02:58:09;10.53;;;2.07;;
2390;SDS011;22957;50.824;4.360;2023-05-07T03:00:34;10.03;;;2.20;;
2390;SDS011;22957;50.824;4.360;2023-05-07T03:03:00;15.73;;;2.80;;
2390;SDS011;22957;50.824;4.360;2023-05-07T03:05:25;8.77;;;1.90;;
2390;SDS011;22957;50.824;4.360;2023-05-07T03:07:51;6.13;;;1.40;;
2390;SDS011;22957;50.824;4.360;2023-05-07T03:10:17;6.73;;;1.80;;
2390;SDS011;22957;50.824;4.360;2023-05-07T03:12:43;8.40;;;2.30;;
2390;SDS011;22957;50.824;4.360;2023-05-07T03:15:09;8.33;;;2.50;;
2390;SDS011;22957;50.824;4.360;2023-05-07T03:17:36;6.27;;;2.17;;
2390;SDS011;22957;50.824;4.360;2023-05-07T03:20:02;6.70;;;2.13;;
2390;SDS011;22957;50.824;4.360;2023-05-07T03:22:28;7.50;;;2.33;;
2390;SDS011;22957;50.824;4.360;2023-05-07T03:24:53;8.23;;;2.70;;
2390;SDS011;22957;50.824;4.360;2023-05-07T03:27:19;16.83;;;2.80;;
2390;SDS011;22957;50.824;4.360;2023-05-07T03:29:44;3.90;;;2.20;;
2390;SDS011;22957;50.824;4.360;2023-05-07T03:32:10;7.97;;;2.00;;
2390;SDS011;22957;50.824;4.360;2023-05-07T03:34:36;12.53;;;3.33;;
2390;SDS011;22957;50.824;4.360;2023-05-07T03:37:01;4.87;;;2.33;;
2390;SDS011;22957;50.824;4.360;2023-05-07T03:39:27;3.97;;;1.93;;
2390;SDS011;22957;50.824;4.360;2023-05-07T03:41:52;9.67;;;2.13;;
2390;SDS011;22957;50.824;4.360;2023-05-07T03:44:18;5.03;;;2.63;;
2390;SDS011;22957;50.824;4.360;2023-05-07T03:46:43;7.13;;;2.13;;
2390;SDS011;22957;50.824;4.360;2023-05-07T03:49:09;6.37;;;2.43;;
2390;SDS011;22957;50.824;4.360;2023-05-07T03:51:35;5.57;;;2.00;;
2390;SDS011;22957;50.824;4.360;2023-05-07T03:54:01;11.37;;;2.77;;
2390;SDS011;22957;50.824;4.360;2023-05-07T03:56:26;7.73;;;1.80;;
2390;SDS011;22957;50.824;4.360;2023-05-07T03:58:53;8.83;;;2.00;;
2390;SDS011;22957;50.824;4.360;2023-05-07T04:01:18;9.53;;;1.73;;
2390;SDS011;22957;50.824;4.360;2023-05-07T04:03:44;8.57;;;2.47;;
2390;SDS011;22957;50.824;4.360;2023-05-07T04:06:10;8.83;;;1.97;;
2390;SDS011;22957;50.824;4.360;2023-05-07T04:08:35;7.93;;;1.90;;
2390;SDS011;22957;50.824;4.360;2023-05-07T04:11:01;5.03;;;1.87;;
2390;SDS011;22957;50.824;4.360;2023-05-07T04:13:27;6.90;;;2.03;;
2390;SDS011;22957;50.824;4.360;2023-05-07T04:15:53;6.60;;;1.97;;
2390;SDS011;22957;50.824;4.360;2023-05-07T04:18:19;9.80;;;1.73;;
2390;SDS011;22957;50.824;4.360;2023-05-07T04:20:46;6.10;;;1.97;;
2390;SDS011;22957;50.824;4.360;2023-05-07T04:23:12;7.30;;;1.70;;
2390;SDS011;22957;50.824;4.360;2023-05-07T04:25:38;5.13;;;1.50;;
2390;SDS011;22957;50.824;4.360;2023-05-07T04:28:03;7.63;;;1.60;;
2390;SDS011;22957;50.824;4.360;2023-05-07T04:30:29;6.80;;;1.77;;
2390;SDS011;22957;50.824;4.360;2023-05-07T04:32:55;5.93;;;1.87;;
2390;SDS011;22957;50.824;4.360;2023-05-07T04:35:21;9.83;;;1.70;;
2390;SDS011;22957;50.824;4.360;2023-05-07T04:37:46;8.23;;;2.00;;
2390;SDS011;22957;50.824;4.360;2023-05-07T04:40:12;6.30;;;1.73;;
2390;SDS011;22957;50.824;4.360;2023-05-07T04:42:38;8.23;;;1.83;;
2390;SDS011;22957;50.824;4.360;2023-05-07T04:45:04;6.17;;;1.63;;
2390;SDS011;22957;50.824;4.360;2023-05-07T04:47:30;4.40;;;1.60;;
2390;SDS011;22957;50.824;4.360;2023-05-07T04:49:55;5.80;;;1.70;;
2390;SDS011;22957;50.824;4.360;2023-05-07T04:52:22;5.63;;;1.50;;
2390;SDS011;22957;50.824;4.360;2023-05-07T04:54:47;6.83;;;1.73;;
2390;SDS011;22957;50.824;4.360;2023-05-07T04:57:13;7.43;;;1.70;;
2390;SDS011;22957;50.824;4.360;2023-05-07T04:59:39;6.00;;;2.13;;
2390;SDS011;22957;50.824;4.360;2023-05-07T05:02:05;4.63;;;1.87;;
2390;SDS011;22957;50.824;4.360;2023-05-07T05:04:30;4.20;;;1.63;;
2390;SDS011;22957;50.824;4.360;2023-05-07T05:06:56;8.13;;;2.00;;
2390;SDS011;22957;50.824;4.360;2023-05-07T05:09:21;4.43;;;1.80;;
2390;SDS011;22957;50.824;4.360;2023-05-07T05:11:47;9.00;;;2.63;;
2390;SDS011;22957;50.824;4.360;2023-05-07T05:14:13;10.67;;;1.80;;
2390;SDS011;22957;50.824;4.360;2023-05-07T05:16:38;9.53;;;2.30;;
2390;SDS011;22957;50.824;4.360;2023-05-07T05:19:04;5.77;;;2.20;;
2390;SDS011;22957;50.824;4.360;2023-05-07T05:21:30;5.50;;;2.43;;
2390;SDS011;22957;50.824;4.360;2023-05-07T05:23:57;7.63;;;2.50;;
2390;SDS011;22957;50.824;4.360;2023-05-07T05:26:23;7.80;;;2.83;;
2390;SDS011;22957;50.824;4.360;2023-05-07T05:28:49;8.00;;;2.50;;
2390;SDS011;22957;50.824;4.360;2023-05-07T05:31:15;8.70;;;1.70;;
2390;SDS011;22957;50.824;4.360;2023-05-07T05:33:41;5.57;;;1.93;;
2390;SDS011;22957;50.824;4.360;2023-05-07T05:36:09;5.13;;;2.17;;
2390;SDS011;22957;50.824;4.360;2023-05-07T05:38:35;8.63;;;1.67;;
2390;SDS011;22957;50.824;4.360;2023-05-07T05:41:01;8.43;;;2.33;;
2390;SDS011;22957;50.824;4.360;2023-05-07T05:43:27;6.10;;;1.70;;
2390;SDS011;22957;50.824;4.360;2023-05-07T05:45:52;6.27;;;1.87;;
2390;SDS011;22957;50.824;4.360;2023-05-07T05:48:18;7.70;;;2.27;;
2390;SDS011;22957;50.824;4.360;2023-05-07T05:50:44;12.27;;;2.60;;
2390;SDS011;22957;50.824;4.360;2023-05-07T05:53:09;6.07;;;2.50;;
2390;SDS011;22957;50.824;4.360;2023-05-07T05:55:35;7.60;;;2.47;;
2390;SDS011;22957;50.824;4.360;2023-05-07T05:58:01;12.30;;;2.10;;
2390;SDS011;22957;50.824;4.360;2023-05-07T06:00:27;10.00;;;2.77;;
2390;SDS011;22957;50.824;4.360;2023-05-07T06:02:52;7.57;;;2.20;;
2390;SDS011;22957;50.824;4.360;2023-05-07T06:05:18;10.63;;;2.77;;
2390;SDS011;22957;50.824;4.360;2023-05-07T06:07:43;6.70;;;3.23;;
2390;SDS011;22957;50.824;4.360;2023-05-07T06:10:09;7.60;;;2.60;;
2390;SDS011;22957;50.824;4.360;2023-05-07T06:12:35;8.00;;;3.37;;
2390;SDS011;22957;50.824;4.360;2023-05-07T06:15:00;13.10;;;3.70;;
2390;SDS011;22957;50.824;4.360;2023-05-07T06:17:26;10.43;;;3.70;;
2390;SDS011;22957;50.824;4.360;2023-05-07T06:19:52;8.93;;;4.30;;
2390;SDS011;22957;50.824;4.360;2023-05-07T06:22:18;8.00;;;3.10;;
2390;SDS011;22957;50.824;4.360;2023-05-07T06:24:43;10.10;;;4.13;;
2390;SDS011;22957;50.824;4.360;2023-05-07T06:27:09;8.43;;;3.77;;
2390;SDS011;22957;50.824;4.360;2023-05-07T06:29:34;7.70;;;3.53;;
2390;SDS011;22957;50.824;4.360;2023-05-07T06:32:12;12.27;;;4.23;;
2390;SDS011;22957;50.824;4.360;2023-05-07T06:34:39;11.17;;;3.57;;
2390;SDS011;22957;50.824;4.360;2023-05-07T06:37:06;7.87;;;3.07;;
2390;SDS011;22957;50.824;4.360;2023-05-07T06:39:32;7.00;;;3.20;;
2390;SDS011;22957;50.824;4.360;2023-05-07T06:42:00;6.70;;;3.50;;
2390;SDS011;22957;50.824;4.360;2023-05-07T06:44:27;9.40;;;2.80;;
2390;SDS011;22957;50.824;4.360;2023-05-07T06:46:52;5.30;;;2.87;;
2390;SDS011;22957;50.824;4.360;2023-05-07T06:49:18;6.50;;;3.10;;
2390;SDS011;22957;50.824;4.360;2023-05-07T06:51:43;12.00;;;3.57;;
2390;SDS011;22957;50.824;4.360;2023-05-07T06:54:09;6.83;;;3.23;;
2390;SDS011;22957;50.824;4.360;2023-05-07T06:56:34;5.33;;;3.00;;
2390;SDS011;22957;50.824;4.360;2023-05-07T06:59:01;6.10;;;3.57;;
2390;SDS011;22957;50.824;4.360;2023-05-07T07:01:27;6.80;;;2.70;;
2390;SDS011;22957;50.824;4.360;2023-05-07T07:03:53;5.90;;;3.27;;
2390;SDS011;22957;50.824;4.360;2023-05-07T07:06:18;8.03;;;2.90;;
2390;SDS011;22957;50.824;4.360;2023-05-07T07:08:45;5.37;;;3.10;;
2390;SDS011;22957;50.824;4.360;2023-05-07T07:11:10;7.47;;;2.93;;
2390;SDS011;22957;50.824;4.360;2023-05-07T07:13:36;6.07;;;3.67;;
2390;SDS011;22957;50.824;4.360;2023-05-07T07:16:02;4.83;;;2.40;;
2390;SDS011;22957;50.824;4.360;2023-05-07T07:18:28;6.23;;;3.30;;
2390;SDS011;22957;50.824;4.360;2023-05-07T07:20:54;4.90;;;2.50;;
2390;SDS011;22957;50.824;4.360;2023-05-07T07:23:20;12.03;;;3.63;;
2390;SDS011;22957;50.824;4.360;2023-05-07T07:25:46;11.53;;;3.13;;
2390;SDS011;22957;50.824;4.360;2023-05-07T07:28:12;8.57;;;2.87;;
2390;SDS011;22957;50.824;4.360;2023-05-07T07:30:38;6.30;;;2.60;;
2390;SDS011;22957;50.824;4.360;2023-05-07T07:33:03;4.53;;;2.50;;
2390;SDS011;22957;50.824;4.360;2023-05-07T07:35:30;7.40;;;3.23;;
2390;SDS011;22957;50.824;4.360;2023-05-07T07:37:59;3.87;;;2.30;;
2390;SDS011;22957;50.824;4.360;2023-05-07T07:40:24;5.70;;;2.10;;
2390;SDS011;22957;50.824;4.360;2023-05-07T07:42:51;6.60;;;2.20;;
2390;SDS011;22957;50.824;4.360;2023-05-07T07:45:16;10.53;;;2.63;;
2390;SDS011;22957;50.824;4.360;2023-05-07T07:47:42;5.97;;;2.80;;
2390;SDS011;22957;50.824;4.360;2023-05-07T07:50:08;6.30;;;2.20;;
2390;SDS011;22957;50.824;4.360;2023-05-07T07:52:34;8.13;;;3.03;;
2390;SDS011;22957;50.824;4.360;2023-05-07T07:55:00;5.30;;;2.77;;
2390;SDS011;22957;50.824;4.360;2023-05-07T07:57:26;4.63;;;1.57;;
2390;SDS011;22957;50.824;4.360;2023-05-07T07:59:51;5.70;;;2.60;;
2390;SDS011;22957;50.824;4.360;2023-05-07T08:02:17;5.27;;;2.90;;
2390;SDS011;22957;50.824;4.360;2023-05-07T08:04:42;5.80;;;3.10;;
2390;SDS011;22957;50.824;4.360;2023-05-07T08:07:11;8.50;;;3.03;;
2390;SDS011;22957;50.824;4.360;2023-05-07T08:09:37;5.90;;;2.67;;
2390;SDS011;22957;50.824;4.360;2023-05-07T08:12:04;3.60;;;2.70;;
2390;SDS011;22957;50.824;4.360;2023-05-07T08:14:31;4.87;;;3.17;;
2390;SDS011;22957;50.824;4.360;2023-05-07T08:16:56;6.77;;;3.20;;
2390;SDS011;22957;50.824;4.360;2023-05-07T08:19:22;4.00;;;2.33;;
2390;SDS011;22957;50.824;4.360;2023-05-07T08:21:48;8.10;;;3.10;;
2390;SDS011;22957;50.824;4.360;2023-05-07T08:24:14;4.53;;;2.47;;
2390;SDS011;22957;50.824;4.360;2023-05-07T08:26:39;9.63;;;3.33;;
2390;SDS011;22957;50.824;4.360;2023-05-07T08:29:06;8.53;;;3.40;;
2390;SDS011;22957;50.824;4.360;2023-05-07T08:31:31;2.80;;;2.30;;
2390;SDS011;22957;50.824;4.360;2023-05-07T08:33:57;3.50;;;2.40;;
2390;SDS011;22957;50.824;4.360;2023-05-07T08:36:23;8.53;;;3.87;;
2390;SDS011;22957;50.824;4.360;2023-05-07T08:38:49;5.37;;;3.00;;
2390;SDS011;22957;50.824;4.360;2023-05-07T08:41:15;8.00;;;2.60;;
2390;SDS011;22957;50.824;4.360;2023-05-07T08:43:41;7.93;;;2.97;;
2390;SDS011;22957;50.824;4.360;2023-05-07T08:46:10;6.03;;;2.93;;
2390;SDS011;22957;50.824;4.360;2023-05-07T08:48:40;6.53;;;2.50;;
2390;SDS011;22957;50.824;4.360;2023-05-07T08:51:06;8.77;;;3.07;;
2390;SDS011;22957;50.824;4.360;2023-05-07T08:53:32;8.87;;;3.03;;
2390;SDS011;22957;50.824;4.360;2023-05-07T08:55:58;8.97;;;3.40;;
2390;SDS011;22957;50.824;4.360;2023-05-07T08:58:24;4.80;;;2.57;;
2390;SDS011;22957;50.824;4.360;2023-05-07T09:00:50;3.53;;;1.80;;
2390;SDS011;22957;50.824;4.360;2023-05-07T09:03:17;3.93;;;2.20;;
2390;SDS011;22957;50.824;4.360;2023-05-07T09:05:43;4.30;;;2.60;;
2390;SDS011;22957;50.824;4.360;2023-05-07T09:08:09;4.80;;;2.63;;
2390;SDS011;22957;50.824;4.360;2023-05-07T09:10:35;7.37;;;3.03;;
2390;SDS011;22957;50.824;4.360;2023-05-07T09:13:01;4.60;;;2.43;;
2390;SDS011;22957;50.824;4.360;2023-05-07T09:15:28;5.43;;;1.80;;
2390;SDS011;22957;50.824;4.360;2023-05-07T09:17:53;4.77;;;1.97;;
2390;SDS011;22957;50.824;4.360;2023-05-07T09:20:19;4.00;;;1.90;;
2390;SDS011;22957;50.824;4.360;2023-05-07T09:22:45;7.07;;;2.63;;
2390;SDS011;22957;50.824;4.360;2023-05-07T09:25:11;4.70;;;2.13;;
2390;SDS011;22957;50.824;4.360;2023-05-07T09:27:36;8.47;;;2.53;;
2390;SDS011;22957;50.824;4.360;2023-05-07T09:30:03;6.47;;;2.50;;
2390;SDS011;22957;50.824;4.360;2023-05-07T09:32:33;5.50;;;2.40;;
2390;SDS011;22957;50.824;4.360;2023-05-07T09:35:00;8.40;;;1.90;;
2390;SDS011;22957;50.824;4.360;2023-05-07T09:37:27;6.57;;;2.10;;
2390;SDS011;22957;50.824;4.360;2023-05-07T09:39:53;5.10;;;2.17;;
2390;SDS011;22957;50.824;4.360;2023-05-07T09:42:23;4.20;;;1.60;;
2390;SDS011;22957;50.824;4.360;2023-05-07T09:44:52;6.17;;;1.67;;
2390;SDS011;22957;50.824;4.360;2023-05-07T09:47:20;4.17;;;1.30;;
2390;SDS011;22957;50.824;4.360;2023-05-07T09:49:49;5.70;;;1.63;;
2390;SDS011;22957;50.824;4.360;2023-05-07T09:52:19;3.60;;;1.63;;
2390;SDS011;22957;50.824;4.360;2023-05-07T09:54:45;4.57;;;1.60;;
2390;SDS011;22957;50.824;4.360;2023-05-07T09:57:14;5.67;;;2.23;;
2390;SDS011;22957;50.824;4.360;2023-05-07T09:59:42;4.97;;;1.60;;
2390;SDS011;22957;50.824;4.360;2023-05-07T10:02:09;6.40;;;2.10;;
2390;SDS011;22957;50.824;4.360;2023-05-07T10:04:35;3.30;;;1.60;;
2390;SDS011;22957;50.824;4.360;2023-05-07T10:07:01;7.57;;;2.77;;
2390;SDS011;22957;50.824;4.360;2023-05-07T10:09:29;4.47;;;1.70;;
2390;SDS011;22957;50.824;4.360;2023-05-07T10:11:55;8.60;;;2.73;;
2390;SDS011;22957;50.824;4.360;2023-05-07T10:14:22;3.43;;;1.50;;
2390;SDS011;22957;50.824;4.360;2023-05-07T10:16:49;4.33;;;2.07;;
2390;SDS011;22957;50.824;4.360;2023-05-07T10:19:14;6.37;;;2.53;;
2390;SDS011;22957;50.824;4.360;2023-05-07T10:21:44;4.47;;;2.30;;
2390;SDS011;22957;50.824;4.360;2023-05-07T10:24:25;4.83;;;2.50;;
2390;SDS011;22957;50.824;4.360;2023-05-07T10:26:52;4.87;;;2.20;;
2390;SDS011;22957;50.824;4.360;2023-05-07T10:34:40;4.40;;;1.70;;
2390;SDS011;22957;50.824;4.360;2023-05-07T10:37:09;4.90;;;2.00;;
2390;SDS011;22957;50.824;4.360;2023-05-07T10:39:36;6.07;;;2.33;;
2390;SDS011;22957;50.824;4.360;2023-05-07T10:42:09;4.73;;;2.40;;
2390;SDS011;22957;50.824;4.360;2023-05-07T10:44:36;6.00;;;2.03;;
2390;SDS011;22957;50.824;4.360;2023-05-07T10:54:42;6.50;;;1.50;;
2390;SDS011;22957;50.824;4.360;2023-05-07T10:59:55;4.13;;;1.37;;
2390;SDS011;22957;50.824;4.360;2023-05-07T11:02:21;2.77;;;1.83;;
2390;SDS011;22957;50.824;4.360;2023-05-07T11:05:18;3.23;;;2.03;;
2390;SDS011;22957;50.824;4.360;2023-05-07T11:07:43;4.97;;;2.03;;
2390;SDS011;22957;50.824;4.360;2023-05-07T11:10:22;4.70;;;2.40;;
2390;SDS011;22957;50.824;4.360;2023-05-07T11:12:49;3.10;;;1.80;;
2390;SDS011;22957;50.824;4.360;2023-05-07T11:15:15;2.50;;;1.63;;
2390;SDS011;22957;50.824;4.360;2023-05-07T11:18:02;4.70;;;1.60;;
2390;SDS011;22957;50.824;4.360;2023-05-07T11:20:48;4.97;;;1.67;;
2390;SDS011;22957;50.824;4.360;2023-05-07T11:28:30;3.00;;;1.47;;
2390;SDS011;22957;50.824;4.360;2023-05-07T11:30:57;3.07;;;1.60;;
2390;SDS011;22957;50.824;4.360;2023-05-07T11:33:23;3.47;;;1.87;;
2390;SDS011;22957;50.824;4.360;2023-05-07T11:35:53;4.00;;;1.40;;
2390;SDS011;22957;50.824;4.360;2023-05-07T11:38:18;3.90;;;1.40;;
2390;SDS011;22957;50.824;4.360;2023-05-07T11:40:50;8.73;;;2.10;;
2390;SDS011;22957;50.824;4.360;2023-05-07T11:43:17;4.00;;;1.70;;
2390;SDS011;22957;50.824;4.360;2023-05-07T11:45:42;2.80;;;1.53;;
2390;SDS011;22957;50.824;4.360;2023-05-07T11:48:12;2.83;;;1.70;;
2390;SDS011;22957;50.824;4.360;2023-05-07T11:51:11;2.70;;;1.43;;
2390;SDS011;22957;50.824;4.360;2023-05-07T11:53:40;2.90;;;1.60;;
2390;SDS011;22957;50.824;4.360;2023-05-07T11:56:07;5.00;;;1.53;;
2390;SDS011;22957;50.824;4.360;2023-05-07T11:58:37;1.77;;;1.30;;
2390;SDS011;22957;50.824;4.360;2023-05-07T12:01:07;5.60;;;1.40;;
2390;SDS011;22957;50.824;4.360;2023-05-07T12:03:34;3.30;;;1.60;;
2390;SDS011;22957;50.824;4.360;2023-05-07T12:06:01;2.63;;;2.10;;
2390;SDS011;22957;50.824;4.360;2023-05-07T12:08:27;2.00;;;1.50;;
2390;SDS011;22957;50.824;4.360;2023-05-07T12:10:53;3.10;;;1.60;;
2390;SDS011;22957;50.824;4.360;2023-05-07T12:15:46;3.60;;;1.70;;
2390;SDS011;22957;50.824;4.360;2023-05-07T12:18:20;2.93;;;1.97;;
2390;SDS011;22957;50.824;4.360;2023-05-07T12:20:46;3.50;;;1.70;;
2390;SDS011;22957;50.824;4.360;2023-05-07T12:23:13;2.87;;;1.50;;
2390;SDS011;22957;50.824;4.360;2023-05-07T12:25:39;3.83;;;2.23;;
2390;SDS011;22957;50.824;4.360;2023-05-07T12:28:13;4.03;;;2.20;;
2390;SDS011;22957;50.824;4.360;2023-05-07T12:30:40;3.53;;;1.77;;
2390;SDS011;22957;50.824;4.360;2023-05-07T12:33:07;4.93;;;2.00;;
2390;SDS011;22957;50.824;4.360;2023-05-07T12:35:37;4.47;;;3.20;;
2390;SDS011;22957;50.824;4.360;2023-05-07T12:38:08;11.23;;;3.50;;
2390;SDS011;22957;50.824;4.360;2023-05-07T12:40:35;4.03;;;3.50;;
2390;SDS011;22957;50.824;4.360;2023-05-07T12:43:14;6.23;;;5.03;;
2390;SDS011;22957;50.824;4.360;2023-05-07T12:45:43;8.27;;;5.10;;
2390;SDS011;22957;50.824;4.360;2023-05-07T12:48:11;5.23;;;4.70;;
2390;SDS011;22957;50.824;4.360;2023-05-07T12:50:37;4.93;;;4.43;;
2390;SDS011;22957;50.824;4.360;2023-05-07T12:53:04;13.20;;;7.60;;
2390;SDS011;22957;50.824;4.360;2023-05-07T12:55:43;6.07;;;4.93;;
2390;SDS011;22957;50.824;4.360;2023-05-07T13:00:42;6.07;;;5.33;;
2390;SDS011;22957;50.824;4.360;2023-05-07T13:03:08;6.23;;;4.50;;
2390;SDS011;22957;50.824;4.360;2023-05-07T13:05:34;7.20;;;5.13;;
2390;SDS011;22957;50.824;4.360;2023-05-07T13:08:00;5.47;;;4.97;;
2390;SDS011;22957;50.824;4.360;2023-05-07T13:10:26;6.43;;;5.07;;
2390;SDS011;22957;50.824;4.360;2023-05-07T13:12:52;5.87;;;4.90;;
2390;SDS011;22957;50.824;4.360;2023-05-07T13:15:18;6.70;;;6.00;;
2390;SDS011;22957;50.824;4.360;2023-05-07T13:17:44;9.90;;;6.30;;
2390;SDS011;22957;50.824;4.360;2023-05-07T13:20:10;7.50;;;5.90;;
2390;SDS011;22957;50.824;4.360;2023-05-07T13:22:37;5.40;;;4.90;;
2390;SDS011;22957;50.824;4.360;2023-05-07T13:25:04;6.07;;;4.37;;
2390;SDS011;22957;50.824;4.360;2023-05-07T13:27:30;5.57;;;4.93;;
2390;SDS011;22957;50.824;4.360;2023-05-07T13:29:55;6.20;;;4.47;;
2390;SDS011;22957;50.824;4.360;2023-05-07T13:32:21;7.00;;;5.63;;
2390;SDS011;22957;50.824;4.360;2023-05-07T13:34:47;6.87;;;6.07;;
2390;SDS011;22957;50.824;4.360;2023-05-07T13:37:13;8.00;;;7.00;;
2390;SDS011;22957;50.824;4.360;2023-05-07T13:39:38;7.73;;;6.87;;
2390;SDS011;22957;50.824;4.360;2023-05-07T13:42:04;6.27;;;5.67;;
2390;SDS011;22957;50.824;4.360;2023-05-07T13:44:30;7.70;;;6.00;;
2390;SDS011;22957;50.824;4.360;2023-05-07T13:46:55;8.73;;;7.63;;
2390;SDS011;22957;50.824;4.360;2023-05-07T13:49:21;7.90;;;7.20;;
2390;SDS011;22957;50.824;4.360;2023-05-07T13:51:46;6.23;;;5.63;;
2390;SDS011;22957;50.824;4.360;2023-05-07T13:54:12;8.87;;;7.70;;
2390;SDS011;22957;50.824;4.360;2023-05-07T13:56:38;8.77;;;7.80;;
2390;SDS011;22957;50.824;4.360;2023-05-07T13:59:04;9.17;;;7.53;;
2390;SDS011;22957;50.824;4.360;2023-05-07T14:01:30;8.20;;;7.37;;
2390;SDS011;22957;50.824;4.360;2023-05-07T14:03:56;7.20;;;6.60;;
2390;SDS011;22957;50.824;4.360;2023-05-07T14:06:24;9.23;;;8.33;;
2390;SDS011;22957;50.824;4.360;2023-05-07T14:08:50;8.00;;;7.20;;
2390;SDS011;22957;50.824;4.360;2023-05-07T14:11:16;8.37;;;7.20;;
2390;SDS011;22957;50.824;4.360;2023-05-07T14:13:42;8.90;;;7.87;;
2390;SDS011;22957;50.824;4.360;2023-05-07T14:16:07;9.17;;;8.33;;
2390;SDS011;22957;50.824;4.360;2023-05-07T14:18:33;9.70;;;7.57;;
2390;SDS011;22957;50.824;4.360;2023-05-07T14:21:00;8.47;;;7.53;;
2390;SDS011;22957;50.824;4.360;2023-05-07T14:23:25;7.73;;;6.93;;
2390;SDS011;22957;50.824;4.360;2023-05-07T14:25:51;9.87;;;7.40;;
2390;SDS011;22957;50.824;4.360;2023-05-07T14:28:18;11.33;;;7.67;;
2390;SDS011;22957;50.824;4.360;2023-05-07T14:30:44;7.63;;;5.50;;
2390;SDS011;22957;50.824;4.360;2023-05-07T14:33:09;8.97;;;6.20;;
2390;SDS011;22957;50.824;4.360;2023-05-07T14:35:35;8.00;;;6.90;;
2390;SDS011;22957;50.824;4.360;2023-05-07T14:38:01;7.30;;;5.30;;
2390;SDS011;22957;50.824;4.360;2023-05-07T14:40:26;7.33;;;6.33;;
2390;SDS011;22957;50.824;4.360;2023-05-07T14:42:52;8.53;;;7.67;;
2390;SDS011;22957;50.824;4.360;2023-05-07T14:45:17;8.00;;;6.50;;
2390;SDS011;22957;50.824;4.360;2023-05-07T14:47:43;6.90;;;6.20;;
2390;SDS011;22957;50.824;4.360;2023-05-07T14:50:09;8.47;;;6.00;;
2390;SDS011;22957;50.824;4.360;2023-05-07T14:52:34;5.90;;;5.40;;
2390;SDS011;22957;50.824;4.360;2023-05-07T14:55:00;6.87;;;5.80;;
2390;SDS011;22957;50.824;4.360;2023-05-07T14:57:26;8.23;;;5.83;;
2390;SDS011;22957;50.824;4.360;2023-05-07T14:59:51;8.03;;;5.80;;
2390;SDS011;22957;50.824;4.360;2023-05-07T15:02:17;8.73;;;4.87;;
2390;SDS011;22957;50.824;4.360;2023-05-07T15:04:43;6.60;;;5.87;;
2390;SDS011;22957;50.824;4.360;2023-05-07T15:07:14;5.80;;;5.17;;
2390;SDS011;22957;50.824;4.360;2023-05-07T15:09:41;7.10;;;6.20;;
2390;SDS011;22957;50.824;4.360;2023-05-07T15:12:07;7.20;;;5.30;;
2390;SDS011;22957;50.824;4.360;2023-05-07T15:14:33;5.63;;;5.07;;
2390;SDS011;22957;50.824;4.360;2023-05-07T15:16:59;5.17;;;4.67;;
2390;SDS011;22957;50.824;4.360;2023-05-07T15:19:25;5.80;;;5.20;;
2390;SDS011;22957;50.824;4.360;2023-05-07T15:21:54;5.90;;;5.30;;
2390;SDS011;22957;50.824;4.360;2023-05-07T15:24:21;5.50;;;5.00;;